sensor_id;sensor_type;location;lat;lon;timestamp;temperature;humidity
70826;SHT31;58446;41.490;22.098;2024-03-22T00:02:33;9.61;54.62
70826;SHT31;58446;41.490;22.098;2024-03-22T00:05:14;9.82;54.07
70826;SHT31;58446;41.490;22.098;2024-03-22T00:07:57;9.72;54.39
70826;SHT31;58446;41.490;22.098;2024-03-22T00:10:41;9.82;54.31
70826;SHT31;58446;41.490;22.098;2024-03-22T00:13:21;10.17;53.40
70826;SHT31;58446;41.490;22.098;2024-03-22T00:15:49;10.40;52.83
70826;SHT31;58446;41.490;22.098;2024-03-22T00:18:24;10.37;52.93
70826;SHT31;58446;41.490;22.098;2024-03-22T00:21:05;10.02;54.00
70826;SHT31;58446;41.490;22.098;2024-03-22T00:23:49;9.81;54.69
70826;SHT31;58446;41.490;22.098;2024-03-22T00:26:23;9.52;55.31
70826;SHT31;58446;41.490;22.098;2024-03-22T00:28:50;9.25;55.22
70826;SHT31;58446;41.490;22.098;2024-03-22T00:31:28;9.14;54.41
70826;SHT31;58446;41.490;22.098;2024-03-22T00:33:56;9.13;55.33
70826;SHT31;58446;41.490;22.098;2024-03-22T00:36:33;9.13;55.74
70826;SHT31;58446;41.490;22.098;2024-03-22T00:39:03;9.23;55.72
70826;SHT31;58446;41.490;22.098;2024-03-22T00:41:34;9.15;55.93
70826;SHT31;58446;41.490;22.098;2024-03-22T00:44:07;8.93;56.49
70826;SHT31;58446;41.490;22.098;2024-03-22T00:46:37;8.70;57.59
70826;SHT31;58446;41.490;22.098;2024-03-22T00:49:13;9.11;56.41
70826;SHT31;58446;41.490;22.098;2024-03-22T00:51:40;9.32;56.13
70826;SHT31;58446;41.490;22.098;2024-03-22T00:54:14;9.74;54.93
70826;SHT31;58446;41.490;22.098;2024-03-22T00:56:55;9.78;54.62
70826;SHT31;58446;41.490;22.098;2024-03-22T00:59:23;9.87;54.55
70826;SHT31;58446;41.490;22.098;2024-03-22T01:01:50;9.95;54.63
70826;SHT31;58446;41.490;22.098;2024-03-22T01:04:26;9.78;54.78
70826;SHT31;58446;41.490;22.098;2024-03-22T01:07:03;9.58;55.33
70826;SHT31;58446;41.490;22.098;2024-03-22T01:09:32;9.74;54.95
70826;SHT31;58446;41.490;22.098;2024-03-22T01:12:10;9.66;55.13
70826;SHT31;58446;41.490;22.098;2024-03-22T01:14:51;9.65;55.14
70826;SHT31;58446;41.490;22.098;2024-03-22T01:17:21;9.62;55.45
70826;SHT31;58446;41.490;22.098;2024-03-22T01:19:48;9.68;55.17
70826;SHT31;58446;41.490;22.098;2024-03-22T01:22:14;9.38;55.99
70826;SHT31;58446;41.490;22.098;2024-03-22T01:24:39;9.59;55.40
70826;SHT31;58446;41.490;22.098;2024-03-22T01:27:05;9.74;55.17
70826;SHT31;58446;41.490;22.098;2024-03-22T01:29:31;9.62;55.50
70826;SHT31;58446;41.490;22.098;2024-03-22T01:32:00;9.69;55.72
70826;SHT31;58446;41.490;22.098;2024-03-22T01:34:25;9.71;55.84
70826;SHT31;58446;41.490;22.098;2024-03-22T01:36:52;9.62;56.18
70826;SHT31;58446;41.490;22.098;2024-03-22T01:39:18;9.46;56.51
70826;SHT31;58446;41.490;22.098;2024-03-22T01:41:50;9.37;56.64
70826;SHT31;58446;41.490;22.098;2024-03-22T01:44:16;9.00;57.42
70826;SHT31;58446;41.490;22.098;2024-03-22T01:46:42;8.93;57.75
70826;SHT31;58446;41.490;22.098;2024-03-22T01:49:10;8.94;58.00
70826;SHT31;58446;41.490;22.098;2024-03-22T01:51:36;9.14;57.47
70826;SHT31;58446;41.490;22.098;2024-03-22T01:54:03;9.25;57.02
70826;SHT31;58446;41.490;22.098;2024-03-22T01:56:29;9.30;57.11
70826;SHT31;58446;41.490;22.098;2024-03-22T01:58:56;9.14;57.82
70826;SHT31;58446;41.490;22.098;2024-03-22T02:01:23;9.07;57.80
70826;SHT31;58446;41.490;22.098;2024-03-22T02:03:48;9.13;57.48
70826;SHT31;58446;41.490;22.098;2024-03-22T02:06:14;8.67;58.98
70826;SHT31;58446;41.490;22.098;2024-03-22T02:08:40;8.99;57.92
70826;SHT31;58446;41.490;22.098;2024-03-22T02:11:07;8.90;58.16
70826;SHT31;58446;41.490;22.098;2024-03-22T02:13:33;8.94;57.97
70826;SHT31;58446;41.490;22.098;2024-03-22T02:15:59;9.00;57.94
70826;SHT31;58446;41.490;22.098;2024-03-22T02:18:25;9.27;57.12
70826;SHT31;58446;41.490;22.098;2024-03-22T02:20:50;9.25;56.87
70826;SHT31;58446;41.490;22.098;2024-03-22T02:23:16;9.25;56.77
70826;SHT31;58446;41.490;22.098;2024-03-22T02:25:42;9.07;57.33
70826;SHT31;58446;41.490;22.098;2024-03-22T02:28:08;9.18;57.49
70826;SHT31;58446;41.490;22.098;2024-03-22T02:30:34;8.80;58.59
70826;SHT31;58446;41.490;22.098;2024-03-22T02:32:59;8.93;57.93
70826;SHT31;58446;41.490;22.098;2024-03-22T02:35:25;9.18;57.56
70826;SHT31;58446;41.490;22.098;2024-03-22T02:37:50;9.39;56.57
70826;SHT31;58446;41.490;22.098;2024-03-22T02:40:16;9.58;55.87
70826;SHT31;58446;41.490;22.098;2024-03-22T02:42:42;9.74;55.16
70826;SHT31;58446;41.490;22.098;2024-03-22T02:45:08;9.75;55.19
70826;SHT31;58446;41.490;22.098;2024-03-22T02:47:34;9.63;55.12
70826;SHT31;58446;41.490;22.098;2024-03-22T02:49:59;9.18;56.09
70826;SHT31;58446;41.490;22.098;2024-03-22T02:52:25;8.53;58.22
70826;SHT31;58446;41.490;22.098;2024-03-22T02:54:50;7.97;59.59
70826;SHT31;58446;41.490;22.098;2024-03-22T02:57:16;7.70;60.11
70826;SHT31;58446;41.490;22.098;2024-03-22T02:59:42;7.93;60.70
70826;SHT31;58446;41.490;22.098;2024-03-22T03:02:07;8.26;59.63
70826;SHT31;58446;41.490;22.098;2024-03-22T03:04:33;8.18;59.97
70826;SHT31;58446;41.490;22.098;2024-03-22T03:06:59;8.57;58.88
70826;SHT31;58446;41.490;22.098;2024-03-22T03:09:25;8.79;58.22
70826;SHT31;58446;41.490;22.098;2024-03-22T03:11:51;8.83;58.11
70826;SHT31;58446;41.490;22.098;2024-03-22T03:14:17;9.07;57.64
70826;SHT31;58446;41.490;22.098;2024-03-22T03:16:42;9.18;57.63
70826;SHT31;58446;41.490;22.098;2024-03-22T03:19:08;9.28;56.88
70826;SHT31;58446;41.490;22.098;2024-03-22T03:21:33;9.03;57.50
70826;SHT31;58446;41.490;22.098;2024-03-22T03:23:59;9.15;57.23
70826;SHT31;58446;41.490;22.098;2024-03-22T03:26:25;9.17;57.24
70826;SHT31;58446;41.490;22.098;2024-03-22T03:28:51;9.14;57.46
70826;SHT31;58446;41.490;22.098;2024-03-22T03:31:16;8.99;58.79
70826;SHT31;58446;41.490;22.098;2024-03-22T03:33:42;7.98;61.70
70826;SHT31;58446;41.490;22.098;2024-03-22T03:36:08;8.12;60.71
70826;SHT31;58446;41.490;22.098;2024-03-22T03:38:33;7.99;61.12
70826;SHT31;58446;41.490;22.098;2024-03-22T03:41:02;7.73;61.77
70826;SHT31;58446;41.490;22.098;2024-03-22T03:43:28;7.80;61.50
70826;SHT31;58446;41.490;22.098;2024-03-22T03:45:55;7.37;62.50
70826;SHT31;58446;41.490;22.098;2024-03-22T03:48:21;7.91;61.70
70826;SHT31;58446;41.490;22.098;2024-03-22T03:50:56;8.32;60.08
70826;SHT31;58446;41.490;22.098;2024-03-22T03:53:25;8.50;59.66
70826;SHT31;58446;41.490;22.098;2024-03-22T03:55:50;8.57;59.11
70826;SHT31;58446;41.490;22.098;2024-03-22T03:58:16;8.52;59.56
70826;SHT31;58446;41.490;22.098;2024-03-22T04:00:43;8.36;59.33
70826;SHT31;58446;41.490;22.098;2024-03-22T04:03:09;8.83;58.52
70826;SHT31;58446;41.490;22.098;2024-03-22T04:05:34;8.11;59.74
70826;SHT31;58446;41.490;22.098;2024-03-22T04:08:00;8.31;59.63
70826;SHT31;58446;41.490;22.098;2024-03-22T04:10:26;8.22;59.40
70826;SHT31;58446;41.490;22.098;2024-03-22T04:12:51;8.38;59.59
70826;SHT31;58446;41.490;22.098;2024-03-22T04:15:17;8.48;58.48
70826;SHT31;58446;41.490;22.098;2024-03-22T04:17:43;7.69;59.25
70826;SHT31;58446;41.490;22.098;2024-03-22T04:20:09;7.06;61.36
70826;SHT31;58446;41.490;22.098;2024-03-22T04:22:37;7.43;61.65
70826;SHT31;58446;41.490;22.098;2024-03-22T04:25:03;7.67;61.68
70826;SHT31;58446;41.490;22.098;2024-03-22T04:27:28;8.05;60.57
70826;SHT31;58446;41.490;22.098;2024-03-22T04:29:54;8.49;59.25
70826;SHT31;58446;41.490;22.098;2024-03-22T04:32:20;8.75;58.30
70826;SHT31;58446;41.490;22.098;2024-03-22T04:34:45;8.62;58.88
70826;SHT31;58446;41.490;22.098;2024-03-22T04:37:11;8.59;58.76
70826;SHT31;58446;41.490;22.098;2024-03-22T04:39:40;8.50;59.22
70826;SHT31;58446;41.490;22.098;2024-03-22T04:42:06;8.52;59.35
70826;SHT31;58446;41.490;22.098;2024-03-22T04:44:33;8.28;60.16
70826;SHT31;58446;41.490;22.098;2024-03-22T04:46:58;8.67;58.89
70826;SHT31;58446;41.490;22.098;2024-03-22T04:49:24;8.72;58.83
70826;SHT31;58446;41.490;22.098;2024-03-22T04:51:50;9.01;57.54
70826;SHT31;58446;41.490;22.098;2024-03-22T04:54:16;8.77;58.72
70826;SHT31;58446;41.490;22.098;2024-03-22T04:56:41;8.90;58.30
70826;SHT31;58446;41.490;22.098;2024-03-22T04:59:07;8.60;58.75
70826;SHT31;58446;41.490;22.098;2024-03-22T05:01:32;8.36;60.16
70826;SHT31;58446;41.490;22.098;2024-03-22T05:03:58;8.67;59.06
70826;SHT31;58446;41.490;22.098;2024-03-22T05:06:24;8.81;58.83
70826;SHT31;58446;41.490;22.098;2024-03-22T05:08:49;8.70;60.27
70826;SHT31;58446;41.490;22.098;2024-03-22T05:11:15;8.65;59.61
70826;SHT31;58446;41.490;22.098;2024-03-22T05:13:41;8.08;61.84
70826;SHT31;58446;41.490;22.098;2024-03-22T05:16:07;8.24;61.65
70826;SHT31;58446;41.490;22.098;2024-03-22T05:18:33;8.50;60.64
70826;SHT31;58446;41.490;22.098;2024-03-22T05:20:58;8.32;61.76
70826;SHT31;58446;41.490;22.098;2024-03-22T05:23:24;8.12;62.33
70826;SHT31;58446;41.490;22.098;2024-03-22T05:25:50;8.08;62.80
70826;SHT31;58446;41.490;22.098;2024-03-22T05:28:15;7.46;63.48
70826;SHT31;58446;41.490;22.098;2024-03-22T05:30:41;8.12;62.30
70826;SHT31;58446;41.490;22.098;2024-03-22T05:33:07;8.24;61.06
70826;SHT31;58446;41.490;22.098;2024-03-22T05:35:32;8.28;61.45
70826;SHT31;58446;41.490;22.098;2024-03-22T05:37:58;8.50;60.94
70826;SHT31;58446;41.490;22.098;2024-03-22T05:40:24;8.55;61.03
70826;SHT31;58446;41.490;22.098;2024-03-22T05:42:49;9.04;59.60
70826;SHT31;58446;41.490;22.098;2024-03-22T05:45:15;8.69;61.64
70826;SHT31;58446;41.490;22.098;2024-03-22T05:47:41;9.01;59.84
70826;SHT31;58446;41.490;22.098;2024-03-22T05:50:07;9.17;59.29
70826;SHT31;58446;41.490;22.098;2024-03-22T05:52:33;8.65;62.18
70826;SHT31;58446;41.490;22.098;2024-03-22T05:54:59;9.07;59.75
70826;SHT31;58446;41.490;22.098;2024-03-22T05:57:25;9.34;59.09
70826;SHT31;58446;41.490;22.098;2024-03-22T05:59:51;9.00;61.15
70826;SHT31;58446;41.490;22.098;2024-03-22T06:02:18;9.25;59.65
70826;SHT31;58446;41.490;22.098;2024-03-22T06:04:44;9.28;59.56
70826;SHT31;58446;41.490;22.098;2024-03-22T06:07:10;9.25;59.65
70826;SHT31;58446;41.490;22.098;2024-03-22T06:09:36;9.48;58.89
70826;SHT31;58446;41.490;22.098;2024-03-22T06:12:27;9.44;59.36
70826;SHT31;58446;41.490;22.098;2024-03-22T06:14:53;9.62;58.70
70826;SHT31;58446;41.490;22.098;2024-03-22T06:17:19;9.81;57.93
70826;SHT31;58446;41.490;22.098;2024-03-22T06:19:44;9.89;57.67
70826;SHT31;58446;41.490;22.098;2024-03-22T06:22:10;9.71;58.19
70826;SHT31;58446;41.490;22.098;2024-03-22T06:24:36;9.72;58.55
70826;SHT31;58446;41.490;22.098;2024-03-22T06:27:02;9.90;57.65
70826;SHT31;58446;41.490;22.098;2024-03-22T06:29:28;10.06;57.40
70826;SHT31;58446;41.490;22.098;2024-03-22T06:31:53;9.72;59.11
70826;SHT31;58446;41.490;22.098;2024-03-22T06:34:19;9.87;57.82
70826;SHT31;58446;41.490;22.098;2024-03-22T06:36:45;9.95;57.69
70826;SHT31;58446;41.490;22.098;2024-03-22T06:39:12;9.82;58.43
70826;SHT31;58446;41.490;22.098;2024-03-22T06:41:37;9.66;58.90
70826;SHT31;58446;41.490;22.098;2024-03-22T06:44:03;9.54;59.20
70826;SHT31;58446;41.490;22.098;2024-03-22T06:46:29;9.74;58.45
70826;SHT31;58446;41.490;22.098;2024-03-22T06:48:55;10.03;57.60
70826;SHT31;58446;41.490;22.098;2024-03-22T06:51:20;9.90;58.33
70826;SHT31;58446;41.490;22.098;2024-03-22T06:53:46;10.07;58.80
70826;SHT31;58446;41.490;22.098;2024-03-22T06:56:13;10.10;58.96
70826;SHT31;58446;41.490;22.098;2024-03-22T06:58:39;10.21;58.71
70826;SHT31;58446;41.490;22.098;2024-03-22T07:01:05;10.32;57.92
70826;SHT31;58446;41.490;22.098;2024-03-22T07:03:31;10.50;56.76
70826;SHT31;58446;41.490;22.098;2024-03-22T07:05:56;10.68;55.98
70826;SHT31;58446;41.490;22.098;2024-03-22T07:08:29;10.72;55.86
70826;SHT31;58446;41.490;22.098;2024-03-22T07:10:55;10.67;55.91
70826;SHT31;58446;41.490;22.098;2024-03-22T07:13:21;10.43;56.88
70826;SHT31;58446;41.490;22.098;2024-03-22T07:15:47;10.30;58.64
70826;SHT31;58446;41.490;22.098;2024-03-22T07:18:16;10.30;58.74
70826;SHT31;58446;41.490;22.098;2024-03-22T07:20:42;10.34;59.20
70826;SHT31;58446;41.490;22.098;2024-03-22T07:23:08;10.40;59.01
70826;SHT31;58446;41.490;22.098;2024-03-22T07:25:34;10.53;59.91
70826;SHT31;58446;41.490;22.098;2024-03-22T07:28:00;10.71;60.44
70826;SHT31;58446;41.490;22.098;2024-03-22T07:30:25;10.98;58.22
70826;SHT31;58446;41.490;22.098;2024-03-22T07:32:51;11.08;59.32
70826;SHT31;58446;41.490;22.098;2024-03-22T07:35:17;11.23;60.92
70826;SHT31;58446;41.490;22.098;2024-03-22T07:37:42;11.44;60.71
70826;SHT31;58446;41.490;22.098;2024-03-22T07:40:08;11.63;57.62
70826;SHT31;58446;41.490;22.098;2024-03-22T07:42:35;11.84;58.73
70826;SHT31;58446;41.490;22.098;2024-03-22T07:45:00;11.98;57.55
70826;SHT31;58446;41.490;22.098;2024-03-22T07:47:26;12.08;55.58
70826;SHT31;58446;41.490;22.098;2024-03-22T07:49:53;12.21;54.60
70826;SHT31;58446;41.490;22.098;2024-03-22T07:52:19;12.27;54.63
70826;SHT31;58446;41.490;22.098;2024-03-22T07:54:45;12.20;55.46
70826;SHT31;58446;41.490;22.098;2024-03-22T07:57:11;12.22;56.60
70826;SHT31;58446;41.490;22.098;2024-03-22T07:59:36;12.24;55.15
70826;SHT31;58446;41.490;22.098;2024-03-22T08:02:02;12.20;55.25
70826;SHT31;58446;41.490;22.098;2024-03-22T08:04:29;12.18;55.33
70826;SHT31;58446;41.490;22.098;2024-03-22T08:06:54;12.22;55.65
70826;SHT31;58446;41.490;22.098;2024-03-22T08:09:20;12.20;55.38
70826;SHT31;58446;41.490;22.098;2024-03-22T08:11:50;12.28;54.47
70826;SHT31;58446;41.490;22.098;2024-03-22T08:14:16;12.29;55.49
70826;SHT31;58446;41.490;22.098;2024-03-22T08:16:42;12.36;56.31
70826;SHT31;58446;41.490;22.098;2024-03-22T08:19:08;12.60;55.23
70826;SHT31;58446;41.490;22.098;2024-03-22T08:21:33;12.80;55.03
70826;SHT31;58446;41.490;22.098;2024-03-22T08:23:59;13.02;54.63
70826;SHT31;58446;41.490;22.098;2024-03-22T08:26:25;13.24;52.30
70826;SHT31;58446;41.490;22.098;2024-03-22T08:28:51;13.33;50.72
70826;SHT31;58446;41.490;22.098;2024-03-22T08:31:16;13.50;50.73
70826;SHT31;58446;41.490;22.098;2024-03-22T08:33:43;13.64;50.28
70826;SHT31;58446;41.490;22.098;2024-03-22T08:36:09;13.71;50.60
70826;SHT31;58446;41.490;22.098;2024-03-22T08:38:35;14.04;50.36
70826;SHT31;58446;41.490;22.098;2024-03-22T08:41:01;14.27;47.56
70826;SHT31;58446;41.490;22.098;2024-03-22T08:43:27;14.56;46.27
70826;SHT31;58446;41.490;22.098;2024-03-22T08:46:03;14.51;46.12
70826;SHT31;58446;41.490;22.098;2024-03-22T08:48:34;14.64;48.02
70826;SHT31;58446;41.490;22.098;2024-03-22T08:51:12;14.68;47.42
70826;SHT31;58446;41.490;22.098;2024-03-22T08:53:45;14.83;46.94
70826;SHT31;58446;41.490;22.098;2024-03-22T08:56:29;14.97;47.88
70826;SHT31;58446;41.490;22.098;2024-03-22T08:58:59;15.19;44.81
70826;SHT31;58446;41.490;22.098;2024-03-22T09:01:25;15.02;44.12
70826;SHT31;58446;41.490;22.098;2024-03-22T09:03:50;14.73;44.22
70826;SHT31;58446;41.490;22.098;2024-03-22T09:06:17;14.91;43.93
70826;SHT31;58446;41.490;22.098;2024-03-22T09:08:42;15.08;43.69
70826;SHT31;58446;41.490;22.098;2024-03-22T09:11:08;15.04;43.31
70826;SHT31;58446;41.490;22.098;2024-03-22T09:13:34;14.53;43.41
70826;SHT31;58446;41.490;22.098;2024-03-22T09:16:00;14.57;42.35
70826;SHT31;58446;41.490;22.098;2024-03-22T09:18:26;14.46;42.62
70826;SHT31;58446;41.490;22.098;2024-03-22T09:20:53;14.30;42.84
70826;SHT31;58446;41.490;22.098;2024-03-22T09:23:19;14.37;42.73
70826;SHT31;58446;41.490;22.098;2024-03-22T09:25:46;14.26;42.77
70826;SHT31;58446;41.490;22.098;2024-03-22T09:28:13;14.51;43.12
70826;SHT31;58446;41.490;22.098;2024-03-22T09:30:39;14.84;42.86
70826;SHT31;58446;41.490;22.098;2024-03-22T09:33:08;15.04;42.28
70826;SHT31;58446;41.490;22.098;2024-03-22T09:35:34;15.21;39.36
70826;SHT31;58446;41.490;22.098;2024-03-22T09:38:00;15.25;40.98
70826;SHT31;58446;41.490;22.098;2024-03-22T09:40:26;15.14;41.58
70826;SHT31;58446;41.490;22.098;2024-03-22T09:42:53;15.25;41.14
70826;SHT31;58446;41.490;22.098;2024-03-22T09:45:19;15.35;40.58
70826;SHT31;58446;41.490;22.098;2024-03-22T09:47:46;15.53;38.83
70826;SHT31;58446;41.490;22.098;2024-03-22T09:50:14;15.55;39.57
70826;SHT31;58446;41.490;22.098;2024-03-22T09:52:41;15.67;40.00
70826;SHT31;58446;41.490;22.098;2024-03-22T09:55:08;15.87;41.19
70826;SHT31;58446;41.490;22.098;2024-03-22T09:57:38;15.93;38.33
70826;SHT31;58446;41.490;22.098;2024-03-22T10:00:07;15.85;37.72
70826;SHT31;58446;41.490;22.098;2024-03-22T10:02:34;16.07;38.00
70826;SHT31;58446;41.490;22.098;2024-03-22T10:05:00;16.27;37.46
70826;SHT31;58446;41.490;22.098;2024-03-22T10:07:28;16.54;36.37
70826;SHT31;58446;41.490;22.098;2024-03-22T10:09:58;16.65;35.73
70826;SHT31;58446;41.490;22.098;2024-03-22T10:12:24;16.71;35.74
70826;SHT31;58446;41.490;22.098;2024-03-22T10:14:53;16.80;35.65
70826;SHT31;58446;41.490;22.098;2024-03-22T10:17:19;16.86;35.79
70826;SHT31;58446;41.490;22.098;2024-03-22T10:19:45;16.98;36.35
70826;SHT31;58446;41.490;22.098;2024-03-22T10:22:10;16.89;35.82
70826;SHT31;58446;41.490;22.098;2024-03-22T10:24:36;16.90;35.50
70826;SHT31;58446;41.490;22.098;2024-03-22T10:27:02;16.76;35.92
70826;SHT31;58446;41.490;22.098;2024-03-22T10:29:28;16.98;35.76
70826;SHT31;58446;41.490;22.098;2024-03-22T10:31:55;17.07;35.32
70826;SHT31;58446;41.490;22.098;2024-03-22T10:34:21;16.96;34.35
70826;SHT31;58446;41.490;22.098;2024-03-22T10:36:48;17.27;35.85
70826;SHT31;58446;41.490;22.098;2024-03-22T10:39:17;17.36;34.07
70826;SHT31;58446;41.490;22.098;2024-03-22T10:41:45;17.64;33.49
70826;SHT31;58446;41.490;22.098;2024-03-22T10:44:12;17.79;32.34
70826;SHT31;58446;41.490;22.098;2024-03-22T10:46:38;17.67;33.16
70826;SHT31;58446;41.490;22.098;2024-03-22T10:49:06;17.81;34.63
70826;SHT31;58446;41.490;22.098;2024-03-22T10:51:34;17.99;34.41
70826;SHT31;58446;41.490;22.098;2024-03-22T10:54:01;17.78;33.84
70826;SHT31;58446;41.490;22.098;2024-03-22T10:56:29;17.67;33.99
70826;SHT31;58446;41.490;22.098;2024-03-22T10:58:55;17.75;34.96
70826;SHT31;58446;41.490;22.098;2024-03-22T11:01:22;17.75;33.97
70826;SHT31;58446;41.490;22.098;2024-03-22T11:03:48;17.74;34.17
70826;SHT31;58446;41.490;22.098;2024-03-22T11:06:18;17.74;33.89
70826;SHT31;58446;41.490;22.098;2024-03-22T11:08:43;17.77;34.11
70826;SHT31;58446;41.490;22.098;2024-03-22T11:11:10;17.88;33.52
70826;SHT31;58446;41.490;22.098;2024-03-22T11:13:37;18.04;33.32
70826;SHT31;58446;41.490;22.098;2024-03-22T11:16:04;18.10;32.81
70826;SHT31;58446;41.490;22.098;2024-03-22T11:18:30;18.13;33.14
70826;SHT31;58446;41.490;22.098;2024-03-22T11:20:56;17.98;33.16
70826;SHT31;58446;41.490;22.098;2024-03-22T11:23:22;18.21;33.93
70826;SHT31;58446;41.490;22.098;2024-03-22T11:25:48;18.43;31.86
70826;SHT31;58446;41.490;22.098;2024-03-22T11:28:14;18.42;31.63
70826;SHT31;58446;41.490;22.098;2024-03-22T11:30:40;18.49;31.31
70826;SHT31;58446;41.490;22.098;2024-03-22T11:33:07;18.43;31.74
70826;SHT31;58446;41.490;22.098;2024-03-22T11:35:35;18.63;31.88
70826;SHT31;58446;41.490;22.098;2024-03-22T11:38:02;18.63;30.28
70826;SHT31;58446;41.490;22.098;2024-03-22T11:40:30;18.56;31.03
70826;SHT31;58446;41.490;22.098;2024-03-22T11:42:57;18.56;31.41
70826;SHT31;58446;41.490;22.098;2024-03-22T11:45:25;18.70;32.02
70826;SHT31;58446;41.490;22.098;2024-03-22T11:47:51;18.80;31.67
70826;SHT31;58446;41.490;22.098;2024-03-22T11:50:18;18.94;30.85
70826;SHT31;58446;41.490;22.098;2024-03-22T11:52:45;18.81;31.06
70826;SHT31;58446;41.490;22.098;2024-03-22T11:55:14;18.84;30.85
70826;SHT31;58446;41.490;22.098;2024-03-22T11:57:41;18.50;30.96
70826;SHT31;58446;41.490;22.098;2024-03-22T12:00:07;18.53;31.95
70826;SHT31;58446;41.490;22.098;2024-03-22T12:02:38;18.49;31.52
70826;SHT31;58446;41.490;22.098;2024-03-22T12:05:05;18.53;32.75
70826;SHT31;58446;41.490;22.098;2024-03-22T12:07:32;18.36;31.28
70826;SHT31;58446;41.490;22.098;2024-03-22T12:09:58;18.39;31.26
70826;SHT31;58446;41.490;22.098;2024-03-22T12:12:31;18.43;31.15
70826;SHT31;58446;41.490;22.098;2024-03-22T12:15:01;18.53;30.57
70826;SHT31;58446;41.490;22.098;2024-03-22T12:17:29;18.50;30.73
70826;SHT31;58446;41.490;22.098;2024-03-22T12:19:56;18.50;30.92
70826;SHT31;58446;41.490;22.098;2024-03-22T12:22:24;18.42;30.99
70826;SHT31;58446;41.490;22.098;2024-03-22T12:24:51;18.36;31.36
70826;SHT31;58446;41.490;22.098;2024-03-22T12:27:17;18.32;31.98
70826;SHT31;58446;41.490;22.098;2024-03-22T12:29:43;18.33;32.17
70826;SHT31;58446;41.490;22.098;2024-03-22T12:32:09;18.33;31.98
70826;SHT31;58446;41.490;22.098;2024-03-22T12:34:35;18.12;32.87
70826;SHT31;58446;41.490;22.098;2024-03-22T12:37:01;18.12;32.47
70826;SHT31;58446;41.490;22.098;2024-03-22T12:39:27;18.15;32.77
70826;SHT31;58446;41.490;22.098;2024-03-22T12:41:53;18.22;32.20
70826;SHT31;58446;41.490;22.098;2024-03-22T12:44:19;18.33;32.39
70826;SHT31;58446;41.490;22.098;2024-03-22T12:46:45;18.26;32.23
70826;SHT31;58446;41.490;22.098;2024-03-22T12:49:11;18.30;32.39
70826;SHT31;58446;41.490;22.098;2024-03-22T12:51:37;18.28;32.36
70826;SHT31;58446;41.490;22.098;2024-03-22T12:54:03;18.42;32.60
70826;SHT31;58446;41.490;22.098;2024-03-22T12:56:32;18.35;32.24
70826;SHT31;58446;41.490;22.098;2024-03-22T12:58:59;18.18;32.23
70826;SHT31;58446;41.490;22.098;2024-03-22T13:01:25;18.09;32.51
70826;SHT31;58446;41.490;22.098;2024-03-22T13:03:50;18.08;32.74
70826;SHT31;58446;41.490;22.098;2024-03-22T13:06:16;18.12;32.52
70826;SHT31;58446;41.490;22.098;2024-03-22T13:08:42;18.15;33.00
70826;SHT31;58446;41.490;22.098;2024-03-22T13:11:07;18.06;32.90
70826;SHT31;58446;41.490;22.098;2024-03-22T13:13:37;18.04;32.92
70826;SHT31;58446;41.490;22.098;2024-03-22T13:16:03;17.95;32.61
70826;SHT31;58446;41.490;22.098;2024-03-22T13:18:29;17.98;32.74
70826;SHT31;58446;41.490;22.098;2024-03-22T13:20:55;17.95;32.53
70826;SHT31;58446;41.490;22.098;2024-03-22T13:23:21;17.89;33.36
70826;SHT31;58446;41.490;22.098;2024-03-22T13:25:47;17.89;33.15
70826;SHT31;58446;41.490;22.098;2024-03-22T13:28:12;17.95;33.29
70826;SHT31;58446;41.490;22.098;2024-03-22T13:30:38;18.01;32.81
70826;SHT31;58446;41.490;22.098;2024-03-22T13:33:04;18.09;32.48
70826;SHT31;58446;41.490;22.098;2024-03-22T13:35:31;18.13;32.43
70826;SHT31;58446;41.490;22.098;2024-03-22T13:37:58;18.13;32.26
70826;SHT31;58446;41.490;22.098;2024-03-22T13:40:24;18.25;32.46
70826;SHT31;58446;41.490;22.098;2024-03-22T13:42:53;18.33;32.10
70826;SHT31;58446;41.490;22.098;2024-03-22T13:45:19;18.28;31.87
70826;SHT31;58446;41.490;22.098;2024-03-22T13:47:45;18.19;32.02
70826;SHT31;58446;41.490;22.098;2024-03-22T13:50:11;18.16;31.97
70826;SHT31;58446;41.490;22.098;2024-03-22T13:52:37;18.18;31.78
70826;SHT31;58446;41.490;22.098;2024-03-22T13:55:03;18.13;31.74
70826;SHT31;58446;41.490;22.098;2024-03-22T13:57:30;18.13;31.76
70826;SHT31;58446;41.490;22.098;2024-03-22T13:59:56;18.09;31.79
70826;SHT31;58446;41.490;22.098;2024-03-22T14:02:22;18.13;31.61
70826;SHT31;58446;41.490;22.098;2024-03-22T14:04:47;18.15;31.82
70826;SHT31;58446;41.490;22.098;2024-03-22T14:07:13;18.15;31.29
70826;SHT31;58446;41.490;22.098;2024-03-22T14:09:40;18.18;31.51
70826;SHT31;58446;41.490;22.098;2024-03-22T14:12:06;18.18;31.78
70826;SHT31;58446;41.490;22.098;2024-03-22T14:14:32;18.18;31.78
70826;SHT31;58446;41.490;22.098;2024-03-22T14:16:58;18.15;31.78
70826;SHT31;58446;41.490;22.098;2024-03-22T14:19:23;18.10;31.76
70826;SHT31;58446;41.490;22.098;2024-03-22T14:21:49;18.19;31.97
70826;SHT31;58446;41.490;22.098;2024-03-22T14:24:16;18.28;31.62
70826;SHT31;58446;41.490;22.098;2024-03-22T14:26:42;18.30;31.42
70826;SHT31;58446;41.490;22.098;2024-03-22T14:29:12;18.19;31.47
70826;SHT31;58446;41.490;22.098;2024-03-22T14:31:38;18.22;31.32
70826;SHT31;58446;41.490;22.098;2024-03-22T14:34:07;18.28;31.34
70826;SHT31;58446;41.490;22.098;2024-03-22T14:36:33;18.25;31.20
70826;SHT31;58446;41.490;22.098;2024-03-22T14:38:59;18.15;31.41
70826;SHT31;58446;41.490;22.098;2024-03-22T14:41:25;18.21;31.41
70826;SHT31;58446;41.490;22.098;2024-03-22T14:43:51;18.18;31.23
70826;SHT31;58446;41.490;22.098;2024-03-22T14:46:17;18.13;31.25
70826;SHT31;58446;41.490;22.098;2024-03-22T14:48:50;18.12;30.85
70826;SHT31;58446;41.490;22.098;2024-03-22T14:51:15;18.16;31.13
70826;SHT31;58446;41.490;22.098;2024-03-22T14:53:41;18.02;31.24
70826;SHT31;58446;41.490;22.098;2024-03-22T14:56:07;17.98;31.55
70826;SHT31;58446;41.490;22.098;2024-03-22T14:58:36;17.92;31.60
70826;SHT31;58446;41.490;22.098;2024-03-22T15:01:04;17.97;32.12
70826;SHT31;58446;41.490;22.098;2024-03-22T15:03:34;17.95;32.16
70826;SHT31;58446;41.490;22.098;2024-03-22T15:06:00;17.98;31.58
70826;SHT31;58446;41.490;22.098;2024-03-22T15:08:27;17.99;31.81
70826;SHT31;58446;41.490;22.098;2024-03-22T15:10:56;17.94;32.13
70826;SHT31;58446;41.490;22.098;2024-03-22T15:13:22;17.95;31.66
70826;SHT31;58446;41.490;22.098;2024-03-22T15:15:55;17.92;32.13
70826;SHT31;58446;41.490;22.098;2024-03-22T15:18:22;17.87;32.31
70826;SHT31;58446;41.490;22.098;2024-03-22T15:20:48;17.79;32.58
70826;SHT31;58446;41.490;22.098;2024-03-22T15:23:14;17.91;32.80